Time;durP1;ratioP1;P1;durP2;ratioP2;P2;SDS_P1;SDS_P2;PMS_P1;PMS_P2;Temp;Humidity;BMP_temperature;BMP_pressure;BME280_temperature;BME280_humidity;BME280_pressure;Samples;Min_cycle;Max_cycle;Signal;HPM_P1;HPM_P2
2022/11/27 00:00:40;;;;;;;18.27;4.47;;;;;;;5.27;99.13;102503.53;4824200;29;20178;-74
2022/11/27 00:03:06;;;;;;;17.08;4.30;;;;;;;5.26;99.06;102501.72;4840577;29;20046;-75
2022/11/27 00:05:31;;;;;;;16.75;4.75;;;;;;;5.23;99.02;102507.78;4834449;29;20069;-74
2022/11/27 00:07:56;;;;;;;10.13;4.10;;;;;;;5.23;99.63;102506.91;4829569;29;20046;-74
2022/11/27 00:10:22;;;;;;;10.20;3.67;;;;;;;5.21;99.45;102503.34;4840239;29;20057;-74
2022/11/27 00:12:47;;;;;;;14.32;4.55;;;;;;;5.17;99.30;102499.78;4825200;29;20062;-74
2022/11/27 00:15:13;;;;;;;11.73;3.65;;;;;;;5.17;99.78;102502.41;4824678;29;20045;-75
2022/11/27 00:17:38;;;;;;;19.25;5.22;;;;;;;5.13;99.55;102487.38;4832904;29;20125;-74
2022/11/27 00:20:05;;;;;;;12.65;4.00;;;;;;;5.11;99.65;102491.72;4841072;29;20061;-74
2022/11/27 00:22:30;;;;;;;15.25;3.92;;;;;;;5.11;99.40;102496.97;4841190;29;20034;-74
2022/11/27 00:24:55;;;;;;;15.57;5.00;;;;;;;5.07;99.48;102492.47;4841090;29;20061;-74
2022/11/27 00:27:21;;;;;;;12.95;4.53;;;;;;;5.03;99.58;102481.00;4824671;29;20136;-74
2022/11/27 00:29:46;;;;;;;14.43;4.30;;;;;;;5.02;99.89;102473.97;4810985;29;20057;-75
2022/11/27 00:32:12;;;;;;;16.95;5.32;;;;;;;5.01;100.00;102469.56;4824601;29;20048;-75
2022/11/27 00:34:37;;;;;;;12.32;4.63;;;;;;;4.98;99.80;102466.84;4824446;29;20037;-74
2022/11/27 00:37:03;;;;;;;16.52;4.78;;;;;;;4.93;99.84;102463.22;4840898;29;20042;-74
2022/11/27 00:39:28;;;;;;;16.00;4.65;;;;;;;4.90;100.00;102464.03;4840668;29;20062;-74
2022/11/27 00:41:54;;;;;;;12.90;4.97;;;;;;;4.88;100.00;102456.97;4824737;29;20120;-74
2022/11/27 00:44:19;;;;;;;15.93;4.75;;;;;;;4.85;100.00;102460.38;4840641;29;20038;-75
2022/11/27 00:46:45;;;;;;;13.43;4.53;;;;;;;4.86;100.00;102462.16;4824569;29;20034;-74
2022/11/27 00:49:13;;;;;;;14.23;4.60;;;;;;;4.86;100.00;102469.16;4824347;29;20053;-74
2022/11/27 00:51:39;;;;;;;20.95;5.45;;;;;;;4.83;100.00;102466.44;4824330;29;20044;-74
2022/11/27 00:54:05;;;;;;;15.02;4.75;;;;;;;4.79;100.00;102459.31;4839965;29;20429;-74
2022/11/27 00:56:34;;;;;;;16.30;4.65;;;;;;;4.77;100.00;102463.63;4840665;29;20053;-74
2022/11/27 00:59:00;;;;;;;18.20;4.50;;;;;;;4.74;100.00;102462.69;4828452;29;20069;-74
2022/11/27 01:01:32;;;;;;;14.55;4.65;;;;;;;4.72;100.00;102453.91;4796240;29;20046;-74
2022/11/27 01:03:59;;;;;;;17.75;4.85;;;;;;;4.70;100.00;102452.97;4818849;29;20038;-74
2022/11/27 01:06:26;;;;;;;15.43;4.68;;;;;;;4.68;100.00;102448.53;4822298;29;20056;-74
2022/11/27 01:08:52;;;;;;;18.30;4.78;;;;;;;4.65;100.00;102435.31;4828229;29;20026;-74
2022/11/27 01:11:21;;;;;;;15.43;4.70;;;;;;;4.64;100.00;102442.28;4840672;29;20359;-74
2022/11/27 01:13:47;;;;;;;21.50;5.57;;;;;;;4.63;100.00;102435.28;4823809;29;20156;-74
2022/11/27 01:16:15;;;;;;;20.48;5.40;;;;;;;4.58;100.00;102426.41;4818063;29;20041;-74
2022/11/27 01:18:43;;;;;;;15.68;5.60;;;;;;;4.57;100.00;102427.22;4821384;29;20053;-74
2022/11/27 01:21:10;;;;;;;23.33;5.10;;;;;;;4.55;100.00;102430.66;4837331;29;20042;-74
2022/11/27 01:23:36;;;;;;;14.90;4.72;;;;;;;4.51;100.00;102419.19;4840259;29;20049;-74
2022/11/27 01:26:04;;;;;;;20.30;5.20;;;;;;;4.47;100.00;102438.31;4840591;29;20029;-74
2022/11/27 01:28:30;;;;;;;16.65;4.93;;;;;;;4.43;100.00;102429.47;4826868;29;20126;-74
2022/11/27 01:30:55;;;;;;;18.10;5.55;;;;;;;4.42;100.00;102430.28;4798888;29;20117;-73
2022/11/27 01:33:21;;;;;;;21.85;5.18;;;;;;;4.37;100.00;102425.78;4840303;29;20463;-74
2022/11/27 01:35:57;;;;;;;20.00;5.78;;;;;;;4.37;100.00;102424.03;4840286;29;20034;-74
2022/11/27 01:38:23;;;;;;;22.88;6.07;;;;;;;4.31;100.00;102411.63;4840485;29;20113;-73
2022/11/27 01:40:57;;;;;;;18.02;5.97;;;;;;;4.30;100.00;102408.94;4824013;29;20440;-74
2022/11/27 01:44:20;;;;;;;15.93;5.05;;;;;;;4.31;100.00;102411.63;4840376;29;20046;-74
2022/11/27 01:46:49;;;;;;;15.65;5.05;;;;;;;4.30;100.00;102408.94;4747948;30;20433;-74
2022/11/27 01:49:35;;;;;;;23.75;5.43;;;;;;;4.30;100.00;102406.34;4747767;30;20131;-74
2022/11/27 01:52:06;;;;;;;23.92;5.30;;;;;;;4.32;100.00;102416.03;4816972;29;20061;-74
2022/11/27 01:54:33;;;;;;;;;;;;;;;4.33;100.00;102398.59;4840426;29;20049;-74
2022/11/27 01:57:04;;;;;;;13.13;4.85;;;;;;;4.28;100.00;102380.09;4840256;29;19920;-74
2022/11/27 01:59:29;;;;;;;16.55;6.00;;;;;;;4.27;100.00;102380.03;4807590;29;20110;-74
2022/11/27 02:01:55;;;;;;;19.75;5.68;;;;;;;4.28;100.00;102373.97;4813915;29;20053;-74
2022/11/27 02:04:20;;;;;;;13.82;5.43;;;;;;;4.25;100.00;102358.09;4832688;29;20043;-74
2022/11/27 02:06:46;;;;;;;17.30;5.70;;;;;;;4.21;100.00;102351.03;4823160;29;20352;-74
2022/11/27 02:09:11;;;;;;;16.40;5.80;;;;;;;4.19;100.00;102358.84;4833529;29;20034;-74
2022/11/27 02:11:50;;;;;;;14.70;5.43;;;;;;;4.17;100.00;102351.78;4843641;29;20203;-74
2022/11/27 02:14:25;;;;;;;24.30;6.03;;;;;;;4.15;100.00;102350.84;4843475;29;20046;-74
2022/11/27 02:17:10;;;;;;;16.42;5.53;;;;;;;4.15;100.00;102341.22;4834319;29;20038;-74
2022/11/27 02:19:50;;;;;;;16.13;5.75;;;;;;;4.12;100.00;102333.28;4843298;29;20041;-74
2022/11/27 02:22:43;;;;;;;16.25;4.68;;;;;;;4.14;100.00;102330.72;4843308;29;20479;-74
2022/11/27 02:25:30;;;;;;;13.13;5.10;;;;;;;4.12;100.00;102321.91;4843060;29;20048;-74
2022/11/27 02:28:53;;;;;;;17.65;5.72;;;;;;;4.08;100.00;102321.84;4823841;29;20545;-74
2022/11/27 02:31:26;;;;;;;13.13;5.07;;;;;;;4.05;100.00;102315.59;4750603;30;20048;-74
2022/11/27 02:33:57;;;;;;;14.88;5.00;;;;;;;4.02;100.00;102316.41;4735854;30;20185;-74
2022/11/27 02:36:28;;;;;;;14.05;5.47;;;;;;;4.01;100.00;102319.88;4797707;29;20074;-74
2022/11/27 02:39:19;;;;;;;19.63;5.78;;;;;;;4.01;100.00;102319.00;4842891;29;20044;-74
2022/11/27 02:41:56;;;;;;;18.35;5.30;;;;;;;4.01;100.00;102316.38;4843056;29;20471;-74
2022/11/27 02:44:25;;;;;;;24.02;5.90;;;;;;;3.98;100.00;102306.69;4842850;29;20808;-74
2022/11/27 02:46:51;;;;;;;11.88;5.13;;;;;;;3.96;100.00;102313.63;4842943;29;20050;-74
2022/11/27 02:49:18;;;;;;;14.65;4.85;;;;;;;3.96;100.00;102311.00;4842758;29;20065;-74
2022/11/27 02:51:53;;;;;;;14.90;5.50;;;;;;;3.96;100.00;102318.84;4826147;29;20046;-74
2022/11/27 02:54:25;;;;;;;20.20;6.10;;;;;;;3.97;100.00;102310.13;4842642;29;20079;-74
2022/11/27 02:56:53;;;;;;;15.35;5.60;;;;;;;3.97;100.00;102320.63;4826012;29;20106;-73
2022/11/27 02:59:21;;;;;;;12.45;4.68;;;;;;;3.96;100.00;102318.84;4811563;29;20048;-74
2022/11/27 03:01:56;;;;;;;15.77;6.03;;;;;;;3.96;100.00;102316.25;4815147;29;20447;-74
2022/11/27 03:04:33;;;;;;;18.90;5.22;;;;;;;3.96;100.00;102320.59;4818068;29;20380;-74
2022/11/27 03:07:02;;;;;;;19.50;6.20;;;;;;;3.97;100.00;102330.22;4838042;29;20046;-74
2022/11/27 03:09:38;;;;;;;17.85;5.45;;;;;;;3.97;100.00;102325.88;4834256;29;20038;-74
2022/11/27 03:12:06;;;;;;;15.35;5.35;;;;;;;3.99;100.00;102325.91;4842347;29;20086;-74
2022/11/27 03:14:34;;;;;;;16.35;5.30;;;;;;;4.00;100.00;102319.81;4842324;29;20127;-74
2022/11/27 03:17:24;;;;;;;13.15;5.05;;;;;;;4.00;100.00;102299.72;4815737;29;20034;-73
2022/11/27 03:19:55;;;;;;;15.18;5.25;;;;;;;4.03;100.00;102307.72;4842288;29;20045;-74
2022/11/27 03:22:20;;;;;;;11.60;4.60;;;;;;;4.03;100.00;102296.31;4842328;29;20123;-74
2022/11/27 03:24:48;;;;;;;13.70;5.28;;;;;;;4.00;100.00;102291.88;4825528;29;20045;-74
2022/11/27 03:27:18;;;;;;;15.20;4.50;;;;;;;4.02;100.00;102297.16;4810463;29;20464;-74
2022/11/27 03:29:51;;;;;;;9.65;4.00;;;;;;;4.02;100.00;102295.44;4828313;29;20030;-74
2022/11/27 03:32:17;;;;;;;16.33;5.38;;;;;;;4.03;100.00;102298.94;4841968;29;20111;-74
2022/11/27 03:34:43;;;;;;;13.95;4.72;;;;;;;4.06;100.00;102302.53;4825544;29;20034;-74
2022/11/27 03:37:09;;;;;;;17.88;4.70;;;;;;;4.07;99.67;102295.56;4841905;29;20053;-74
2022/11/27 03:39:35;;;;;;;10.63;4.72;;;;;;;4.08;99.75;102297.34;4841868;29;20029;-74
2022/11/27 03:42:06;;;;;;;13.13;5.10;;;;;;;4.09;99.59;102288.63;4841905;29;20050;-74
2022/11/27 03:45:07;;;;;;;19.98;5.40;;;;;;;4.09;99.60;102289.50;4809501;29;20058;-74
2022/11/27 03:48:11;;;;;;;12.68;4.93;;;;;;;4.19;99.70;102266.19;4764961;29;20840;-74
2022/11/27 03:51:07;;;;;;;15.43;5.05;;;;;;;4.16;99.04;102263.47;4839470;29;20563;-74
2022/11/27 03:53:48;;;;;;;9.75;4.13;;;;;;;4.14;98.76;102271.28;4821388;29;20109;-74
2022/11/27 03:56:32;;;;;;;12.35;4.18;;;;;;;4.14;98.69;102281.78;4802003;29;20092;-74
2022/11/27 03:59:07;;;;;;;12.73;5.45;;;;;;;4.16;98.94;102273.97;4818155;29;20034;-74
2022/11/27 04:01:32;;;;;;;12.10;4.47;;;;;;;4.17;98.73;102273.13;4832390;29;20064;-74
2022/11/27 04:03:58;;;;;;;12.02;4.70;;;;;;;4.17;98.27;102274.00;4835522;29;20443;-74
2022/11/27 04:06:24;;;;;;;10.40;4.22;;;;;;;4.18;98.63;102274.88;4818566;29;20716;-74
2022/11/27 04:08:52;;;;;;;11.63;4.40;;;;;;;4.17;98.40;102270.50;4824081;29;20042;-74
2022/11/27 04:11:17;;;;;;;8.80;4.43;;;;;;;4.19;98.65;102271.44;4823376;29;20099;-74
2022/11/27 04:13:43;;;;;;;14.43;4.30;;;;;;;4.20;98.29;102281.06;4827945;29;20160;-74
2022/11/27 04:16:08;;;;;;;15.50;4.47;;;;;;;4.20;98.62;102294.16;4835516;29;20050;-74
2022/11/27 04:18:34;;;;;;;10.65;4.63;;;;;;;4.21;98.18;102293.34;4836728;29;20098;-74
2022/11/27 04:20:59;;;;;;;9.02;4.10;;;;;;;4.21;98.04;102295.97;4841190;29;20388;-74
2022/11/27 04:23:25;;;;;;;11.77;4.38;;;;;;;4.20;98.59;102284.56;4841294;29;20034;-74
2022/11/27 04:25:50;;;;;;;12.88;4.53;;;;;;;4.22;98.32;102282.88;4807808;29;20488;-74
2022/11/27 04:28:16;;;;;;;12.57;4.28;;;;;;;4.23;97.94;102274.19;4822145;29;20047;-74
2022/11/27 04:30:43;;;;;;;14.45;5.18;;;;;;;4.26;98.36;102278.63;4834310;29;20091;-74
2022/11/27 04:33:08;;;;;;;8.93;3.97;;;;;;;4.26;98.31;102273.38;4841223;29;20113;-74
2022/11/27 04:35:34;;;;;;;13.00;3.83;;;;;;;4.27;97.54;102270.78;4824375;29;20129;-74
2022/11/27 04:37:59;;;;;;;12.45;4.13;;;;;;;4.26;97.51;102274.25;4841031;29;20034;-74
2022/11/27 04:40:25;;;;;;;10.85;4.28;;;;;;;4.27;97.79;102278.63;4824516;29;20509;-74
2022/11/27 04:42:50;;;;;;;14.30;4.38;;;;;;;4.29;97.36;102281.31;4840916;29;20037;-74
2022/11/27 04:45:16;;;;;;;11.43;4.47;;;;;;;4.27;97.62;102275.13;4840831;29;20124;-74
2022/11/27 04:47:42;;;;;;;12.70;3.80;;;;;;;4.28;97.67;102277.81;4840904;29;20030;-74
2022/11/27 04:50:09;;;;;;;10.25;3.90;;;;;;;4.30;97.39;102267.34;4840731;29;20807;-75
2022/11/27 04:52:34;;;;;;;9.80;4.22;;;;;;;4.29;97.24;102266.47;4824540;29;20041;-74
2022/11/27 04:55:00;;;;;;;10.07;4.70;;;;;;;4.29;96.98;102255.09;4840789;29;20490;-74
2022/11/27 04:57:25;;;;;;;12.18;4.45;;;;;;;4.29;97.00;102250.72;4836851;29;20099;-74
2022/11/27 04:59:51;;;;;;;13.10;4.57;;;;;;;4.27;97.25;102241.03;4808772;29;20038;-74
2022/11/27 05:02:16;;;;;;;9.65;4.20;;;;;;;4.26;97.42;102239.28;4824438;29;20038;-74
2022/11/27 05:04:42;;;;;;;9.38;3.90;;;;;;;4.28;97.19;102241.09;4813395;29;20445;-74
2022/11/27 05:07:07;;;;;;;17.25;4.43;;;;;;;4.26;97.17;102234.91;4824308;29;20400;-74
2022/11/27 05:09:33;;;;;;;19.30;4.32;;;;;;;4.26;96.93;102242.78;4809096;29;20045;-74
2022/11/27 05:11:58;;;;;;;14.60;4.00;;;;;;;4.25;96.95;102238.41;4840510;29;20443;-74
2022/11/27 05:14:28;;;;;;;10.80;3.50;;;;;;;4.28;97.00;102233.22;4823973;29;20038;-74
2022/11/27 05:16:56;;;;;;;13.13;4.00;;;;;;;4.28;97.41;102232.34;4815812;29;20106;-74
2022/11/27 05:19:24;;;;;;;13.23;4.35;;;;;;;4.31;97.04;102229.78;4824026;29;20141;-74
2022/11/27 05:21:50;;;;;;;14.20;4.13;;;;;;;4.31;96.90;102227.19;4824166;29;20053;-74
2022/11/27 05:24:18;;;;;;;11.95;3.92;;;;;;;4.28;96.53;102217.50;4840410;29;20042;-74
2022/11/27 05:26:43;;;;;;;10.77;3.97;;;;;;;4.31;96.72;102219.31;4840366;29;20448;-75
2022/11/27 05:29:09;;;;;;;8.93;3.55;;;;;;;4.31;96.57;102214.06;4828790;29;20075;-74
2022/11/27 05:31:35;;;;;;;10.50;3.92;;;;;;;4.31;96.52;102220.19;4824280;29;20038;-74
2022/11/27 05:34:01;;;;;;;13.73;3.60;;;;;;;4.32;96.52;102214.09;4840260;29;20022;-74
2022/11/27 05:36:27;;;;;;;7.50;3.20;;;;;;;4.34;96.30;102208.88;4840325;29;20072;-75
2022/11/27 05:38:53;;;;;;;9.93;3.20;;;;;;;4.35;96.06;102205.41;4840380;29;20073;-75
2022/11/27 05:41:19;;;;;;;11.60;3.55;;;;;;;4.37;96.35;102208.06;4825957;29;20045;-75
2022/11/27 05:43:44;;;;;;;11.63;3.65;;;;;;;4.38;96.01;102204.63;4812108;29;20042;-74
2022/11/27 05:46:12;;;;;;;12.68;3.63;;;;;;;4.37;95.69;102211.59;4844061;29;20098;-75
2022/11/27 05:48:41;;;;;;;10.60;3.40;;;;;;;4.37;96.14;102208.06;4827070;29;20081;-75
2022/11/27 05:51:07;;;;;;;6.80;3.40;;;;;;;4.38;95.91;102199.38;4843647;29;20038;-75
2022/11/27 05:53:32;;;;;;;10.73;3.88;;;;;;;4.38;96.04;102204.63;4833470;29;20030;-75
2022/11/27 05:56:06;;;;;;;12.80;3.53;;;;;;;4.38;96.11;102205.50;4824232;29;20367;-75
2022/11/27 05:58:32;;;;;;;8.15;3.10;;;;;;;4.37;96.51;102190.59;4830369;29;20034;-74
2022/11/27 06:00:58;;;;;;;9.93;3.63;;;;;;;4.40;96.34;102187.16;4820093;29;20045;-75
2022/11/27 06:03:24;;;;;;;12.10;3.70;;;;;;;4.40;95.98;102184.53;4841292;29;20042;-74
2022/11/27 06:05:50;;;;;;;7.93;3.70;;;;;;;4.39;96.20;102178.41;4818499;29;20049;-75
2022/11/27 06:08:15;;;;;;;11.52;3.28;;;;;;;4.41;95.96;102184.59;4843221;29;20030;-74
2022/11/27 06:10:41;;;;;;;9.73;3.53;;;;;;;4.40;96.13;102185.47;4843472;29;20046;-75
2022/11/27 06:13:08;;;;;;;12.13;3.50;;;;;;;4.42;96.54;102188.09;4811870;29;20033;-75
2022/11/27 06:15:36;;;;;;;9.52;4.03;;;;;;;4.42;96.43;102181.09;4841011;29;20443;-74
2022/11/27 06:18:01;;;;;;;13.27;3.83;;;;;;;4.43;96.23;102180.28;4820299;29;20435;-75
2022/11/27 06:20:27;;;;;;;9.95;3.92;;;;;;;4.44;95.99;102182.03;4826485;29;20153;-75
2022/11/27 06:22:52;;;;;;;11.57;4.20;;;;;;;4.44;95.93;102175.91;4826665;29;20069;-75
2022/11/27 06:25:17;;;;;;;9.43;3.88;;;;;;;4.44;95.36;102175.91;4843140;29;20137;-74
2022/11/27 06:27:43;;;;;;;11.98;3.47;;;;;;;4.46;96.25;102175.09;4841413;29;20114;-75
2022/11/27 06:30:09;;;;;;;12.02;3.78;;;;;;;4.46;96.38;102166.34;4833542;29;20025;-75
2022/11/27 06:32:34;;;;;;;10.25;3.97;;;;;;;4.47;95.99;102176.84;4811732;29;20053;-75
2022/11/27 06:35:00;;;;;;;7.57;3.97;;;;;;;4.47;96.20;102168.09;4843074;29;20224;-75
2022/11/27 06:37:25;;;;;;;12.65;4.10;;;;;;;4.46;96.77;102169.84;4842940;29;20037;-75
2022/11/27 06:39:51;;;;;;;10.60;4.00;;;;;;;4.47;96.04;102171.63;4842866;29;20042;-75
2022/11/27 06:42:16;;;;;;;11.35;4.13;;;;;;;4.49;96.75;102177.78;4843039;29;20045;-75
2022/11/27 06:44:42;;;;;;;12.20;4.18;;;;;;;4.47;96.94;102170.72;4826270;29;20106;-75
2022/11/27 06:47:07;;;;;;;9.57;3.83;;;;;;;4.49;97.24;102174.28;4842937;29;20170;-75
2022/11/27 06:49:33;;;;;;;12.55;3.72;;;;;;;4.49;97.08;102171.66;4842803;29;20050;-75
2022/11/27 06:51:59;;;;;;;11.93;3.70;;;;;;;4.52;97.32;102169.09;4810077;29;20045;-74
2022/11/27 06:54:25;;;;;;;12.25;4.75;;;;;;;4.51;97.46;102164.72;4825936;29;20491;-74
2022/11/27 06:56:50;;;;;;;14.13;4.35;;;;;;;4.53;97.81;102166.53;4842568;29;20094;-73
2022/11/27 06:59:16;;;;;;;9.57;3.78;;;;;;;4.53;97.96;102153.41;4823584;29;20081;-73
2022/11/27 07:01:42;;;;;;;10.68;3.75;;;;;;;4.53;97.99;102152.53;4824637;29;20125;-73
2022/11/27 07:04:12;;;;;;;8.60;3.85;;;;;;;4.53;98.69;102153.41;4834563;29;20073;-73
2022/11/27 07:06:38;;;;;;;9.68;3.92;;;;;;;4.53;98.21;102149.91;4823270;29;20057;-73
2022/11/27 07:09:05;;;;;;;8.25;3.40;;;;;;;4.55;98.60;102152.56;4819320;29;20125;-73
2022/11/27 07:11:32;;;;;;;9.85;3.63;;;;;;;4.53;98.54;102147.28;4842572;29;20034;-73
2022/11/27 07:14:00;;;;;;;12.35;3.92;;;;;;;4.53;99.38;102132.44;4842435;29;20155;-73
2022/11/27 07:16:27;;;;;;;7.80;4.00;;;;;;;4.52;99.08;102130.66;4833594;29;20484;-73
2022/11/27 07:18:56;;;;;;;8.32;4.68;;;;;;;4.54;99.63;102122.81;4830509;29;20038;-73
2022/11/27 07:21:22;;;;;;;9.85;3.70;;;;;;;4.55;99.78;102118.44;4837678;29;20048;-73
2022/11/27 07:23:47;;;;;;;9.15;3.72;;;;;;;4.53;99.71;102115.81;4825369;29;20018;-73
2022/11/27 07:26:18;;;;;;;8.10;3.97;;;;;;;4.52;100.00;102112.31;4823898;29;20038;-73
2022/11/27 07:28:45;;;;;;;8.32;3.95;;;;;;;4.52;100.00;102107.06;4807247;29;20419;-73
2022/11/27 07:31:12;;;;;;;9.90;4.22;;;;;;;4.52;100.00;102114.94;4823748;29;20026;-73
2022/11/27 07:33:38;;;;;;;9.02;3.72;;;;;;;4.53;100.00;102121.06;4816051;29;20049;-73
2022/11/27 07:36:12;;;;;;;8.50;3.85;;;;;;;4.55;100.00;102113.19;4823657;29;20404;-73
2022/11/27 07:38:37;;;;;;;11.00;3.97;;;;;;;4.53;100.00;102103.56;4813400;29;20423;-73
2022/11/27 07:41:04;;;;;;;12.20;3.90;;;;;;;4.52;100.00;102093.94;4818052;29;20109;-73
2022/11/27 07:43:31;;;;;;;10.10;4.35;;;;;;;4.49;100.00;102104.34;4813491;29;20445;-73
2022/11/27 07:45:56;;;;;;;10.90;4.38;;;;;;;4.46;100.00;102100.78;4823076;29;20030;-73
2022/11/27 07:48:22;;;;;;;9.55;4.15;;;;;;;4.42;100.00;102096.28;4832297;29;20069;-74
2022/11/27 07:50:47;;;;;;;14.20;4.20;;;;;;;4.40;100.00;102093.66;4806834;29;20341;-74
2022/11/27 07:53:13;;;;;;;9.65;4.93;;;;;;;4.40;100.00;102077.00;4827403;29;20030;-73
2022/11/27 07:55:39;;;;;;;11.90;4.10;;;;;;;4.40;100.00;102075.28;4828020;29;20056;-74
2022/11/27 07:58:06;;;;;;;9.90;4.95;;;;;;;4.42;100.00;102067.44;4830695;29;20046;-73
2022/11/27 08:00:32;;;;;;;13.70;5.47;;;;;;;4.44;100.00;102058.75;4821221;29;20049;-73
2022/11/27 08:02:58;;;;;;;13.50;5.65;;;;;;;4.45;100.00;102059.63;4831249;29;20042;-73
2022/11/27 08:05:23;;;;;;;12.35;5.35;;;;;;;4.46;100.00;102059.69;4806792;29;20145;-73
2022/11/27 08:07:49;;;;;;;10.05;5.05;;;;;;;4.47;100.00;102053.56;4823395;29;20126;-74
2022/11/27 08:10:14;;;;;;;12.43;5.18;;;;;;;4.47;100.00;102050.06;4822963;29;20134;-74
2022/11/27 08:12:40;;;;;;;12.27;4.40;;;;;;;4.47;100.00;102050.94;4806802;29;20110;-74
2022/11/27 08:15:06;;;;;;;15.55;5.43;;;;;;;4.49;100.00;102058.88;4816832;29;20065;-74
2022/11/27 08:17:32;;;;;;;12.30;5.72;;;;;;;4.51;100.00;102059.78;4808653;29;20475;-74
2022/11/27 08:19:57;;;;;;;16.33;5.80;;;;;;;4.53;100.00;102053.72;4827557;29;20093;-74
2022/11/27 08:22:23;;;;;;;15.32;5.93;;;;;;;4.55;100.00;102058.09;4806499;29;20054;-74
2022/11/27 08:24:49;;;;;;;12.48;5.47;;;;;;;4.56;100.00;102054.66;4822790;29;20105;-74
2022/11/27 08:27:15;;;;;;;14.63;4.68;;;;;;;4.58;100.00;102059.09;4823148;29;20077;-74
2022/11/27 08:29:40;;;;;;;18.08;6.15;;;;;;;4.60;100.00;102052.13;4822931;29;20042;-74
2022/11/27 08:32:06;;;;;;;11.25;5.47;;;;;;;4.64;100.00;102061.81;4822729;29;20061;-74
2022/11/27 08:34:31;;;;;;;15.65;5.60;;;;;;;4.65;100.00;102061.00;4825817;29;20035;-74
2022/11/27 08:36:57;;;;;;;14.75;5.78;;;;;;;4.67;100.00;102055.75;4822913;29;20122;-74
2022/11/27 08:39:25;;;;;;;12.50;5.65;;;;;;;4.68;100.00;102058.44;4806138;29;20164;-74
2022/11/27 08:41:50;;;;;;;11.38;5.32;;;;;;;4.70;100.00;102054.09;4801574;29;20102;-75
2022/11/27 08:44:16;;;;;;;15.75;5.47;;;;;;;4.73;100.00;102053.28;4805837;29;20110;-74
2022/11/27 08:46:42;;;;;;;14.27;5.82;;;;;;;4.74;100.00;102053.28;4822699;29;20458;-75
2022/11/27 08:49:07;;;;;;;16.90;7.55;;;;;;;4.77;100.00;102049.84;4822459;29;20034;-75
2022/11/27 08:51:33;;;;;;;13.15;6.00;;;;;;;4.79;100.00;102056.03;4822660;29;20130;-75
2022/11/27 08:53:58;;;;;;;9.13;5.47;;;;;;;4.82;100.00;102060.44;4822435;29;20130;-75
2022/11/27 08:56:24;;;;;;;11.20;5.50;;;;;;;4.81;100.00;102054.31;4805844;29;20345;-75
2022/11/27 08:58:51;;;;;;;17.23;6.40;;;;;;;4.85;100.00;102057.91;4812146;29;20046;-75
2022/11/27 09:01:23;;;;;;;14.43;6.43;;;;;;;4.86;100.00;102057.06;4836798;29;20113;-74
2022/11/27 09:03:49;;;;;;;14.45;6.75;;;;;;;4.87;100.00;102061.44;4834786;29;20038;-74
2022/11/27 09:06:17;;;;;;;14.57;6.32;;;;;;;4.89;100.00;102063.22;4835124;29;20048;-75
2022/11/27 09:08:43;;;;;;;12.95;5.78;;;;;;;4.92;100.00;102062.41;4840651;29;20106;-75
2022/11/27 09:11:11;;;;;;;14.43;6.70;;;;;;;4.93;100.00;102053.69;4840719;29;20211;-74
2022/11/27 09:13:39;;;;;;;14.13;6.47;;;;;;;4.96;100.00;102053.75;4840583;29;20132;-75
2022/11/27 09:16:06;;;;;;;12.00;6.30;;;;;;;4.95;100.00;102052.88;4816784;29;20137;-75
2022/11/27 09:18:32;;;;;;;14.85;6.55;;;;;;;5.02;100.00;102050.38;4829414;29;20482;-75
2022/11/27 09:21:03;;;;;;;15.95;6.28;;;;;;;5.02;100.00;102053.91;4840551;29;20038;-75
2022/11/27 09:23:29;;;;;;;12.77;6.05;;;;;;;5.06;100.00;102060.09;4840603;29;20368;-74
2022/11/27 09:25:59;;;;;;;15.90;6.45;;;;;;;5.07;100.00;102053.97;4840458;29;20124;-75
2022/11/27 09:28:24;;;;;;;11.68;6.55;;;;;;;5.10;100.00;102057.56;4828530;29;20104;-74
2022/11/27 09:30:57;;;;;;;15.35;6.65;;;;;;;5.10;100.00;102054.06;4840417;29;20404;-75
2022/11/27 09:33:25;;;;;;;13.27;6.32;;;;;;;5.12;100.00;102050.59;4838845;29;20037;-75
2022/11/27 09:35:50;;;;;;;20.08;7.43;;;;;;;5.14;100.00;102056.78;4823962;29;20054;-74
2022/11/27 09:38:16;;;;;;;12.48;6.70;;;;;;;5.15;100.00;102040.16;4840448;29;20069;-74
2022/11/27 09:40:48;;;;;;;16.02;7.22;;;;;;;5.18;100.00;102048.09;4840275;29;20430;-74
2022/11/27 09:43:15;;;;;;;14.93;7.00;;;;;;;5.20;100.00;102042.88;4823852;29;20042;-74
2022/11/27 09:45:45;;;;;;;13.05;7.68;;;;;;;5.26;100.00;102057.84;4840273;29;20097;-74
2022/11/27 09:48:17;;;;;;;12.75;6.32;;;;;;;5.27;100.00;102049.13;4810540;29;20144;-75
2022/11/27 09:50:49;;;;;;;12.13;6.07;;;;;;;5.30;100.00;102042.19;4840245;29;20070;-74
2022/11/27 09:53:39;;;;;;;16.10;7.13;;;;;;;5.33;100.00;102044.88;4840287;29;20049;-74
2022/11/27 09:56:10;;;;;;;11.95;7.70;;;;;;;5.34;100.00;102037.88;4823097;29;20033;-75
2022/11/27 09:58:46;;;;;;;15.15;7.05;;;;;;;5.39;100.00;102031.88;4826458;29;20133;-74
2022/11/27 10:01:15;;;;;;;13.15;7.30;;;;;;;5.40;100.00;102019.59;4836182;29;20526;-74
2022/11/27 10:03:42;;;;;;;16.27;7.40;;;;;;;5.42;100.00;102023.16;4835166;29;20023;-74
2022/11/27 10:06:27;;;;;;;16.55;7.32;;;;;;;5.45;100.00;102017.94;4833772;29;20057;-74
2022/11/27 10:09:11;;;;;;;13.90;7.25;;;;;;;5.49;100.00;102011.00;4810396;29;20084;-74
2022/11/27 10:12:04;;;;;;;12.90;6.80;;;;;;;5.52;100.00;102014.56;4821889;29;20066;-75
2022/11/27 10:14:54;;;;;;;12.88;6.57;;;;;;;5.55;100.00;102005.84;4806548;29;20042;-74
2022/11/27 10:17:30;;;;;;;13.18;6.75;;;;;;;5.55;100.00;101998.84;4819473;29;20043;-74
2022/11/27 10:20:08;;;;;;;12.82;6.90;;;;;;;5.55;100.00;101992.72;4831445;29;20050;-75
2022/11/27 10:23:14;;;;;;;12.25;6.85;;;;;;;5.62;100.00;101991.09;4821733;29;20042;-74
2022/11/27 10:25:53;;;;;;;13.68;7.18;;;;;;;5.62;100.00;101986.72;4805908;29;20039;-80
2022/11/27 10:28:56;;;;;;;15.07;7.05;;;;;;;5.65;100.00;101981.50;4824838;29;20057;-74
2022/11/27 10:31:39;;;;;;;12.13;6.53;;;;;;;5.67;100.00;101981.53;4750833;30;20048;-75
2022/11/27 10:34:29;;;;;;;11.60;6.93;;;;;;;5.69;100.00;101972.81;4820238;29;20180;-80
2022/11/27 10:36:56;;;;;;;12.52;6.93;;;;;;;5.69;100.00;101974.56;4825144;29;20169;-80
2022/11/27 10:39:32;;;;;;;14.38;6.60;;;;;;;5.70;100.00;101964.06;4824154;29;20153;-80
2022/11/27 10:42:16;;;;;;;14.57;6.80;;;;;;;5.73;100.00;101957.97;4825734;29;20479;-80
2022/11/27 10:44:51;;;;;;;14.65;7.43;;;;;;;5.72;100.00;101951.84;4819220;29;20112;-80
2022/11/27 10:47:19;;;;;;;14.20;7.63;;;;;;;5.74;100.00;101944.88;4822835;29;20042;-80
2022/11/27 10:49:46;;;;;;;13.73;6.95;;;;;;;5.77;100.00;101946.66;4824635;29;20038;-80
2022/11/27 10:52:16;;;;;;;12.13;7.38;;;;;;;5.78;100.00;101946.66;4824663;29;20030;-80
2022/11/27 10:54:48;;;;;;;12.88;7.00;;;;;;;5.80;100.00;101942.31;4824931;29;20039;-80
2022/11/27 10:57:38;;;;;;;14.88;6.50;;;;;;;5.81;100.00;101936.22;4830639;29;20068;-80
2022/11/27 11:00:07;;;;;;;17.60;7.28;;;;;;;5.81;100.00;101940.56;4816660;29;20039;-80
2022/11/27 11:02:41;;;;;;;15.18;8.25;;;;;;;5.81;100.00;101938.84;4820370;29;20026;-80
2022/11/27 11:05:23;;;;;;;12.30;6.80;;;;;;;5.82;100.00;101940.59;4824881;29;20510;-79
2022/11/27 11:07:59;;;;;;;13.52;7.60;;;;;;;5.82;100.00;101932.72;4824439;29;20588;-80
2022/11/27 11:10:47;;;;;;;11.25;7.35;;;;;;;5.88;100.00;101923.16;4824736;29;20053;-80
2022/11/27 11:13:18;;;;;;;12.20;6.95;;;;;;;5.86;100.00;101923.16;4808232;29;20038;-80
2022/11/27 11:16:24;;;;;;;13.35;7.28;;;;;;;5.89;100.00;101920.56;4808188;29;20046;-80
2022/11/27 11:18:52;;;;;;;14.18;7.15;;;;;;;5.88;100.00;101916.13;4819061;29;20050;-80
2022/11/27 11:21:38;;;;;;;14.52;6.95;;;;;;;5.90;100.00;101919.69;4824468;29;20034;-80
2022/11/27 11:24:13;;;;;;;16.15;7.55;;;;;;;5.89;100.00;101902.16;4824264;29;20406;-75
2022/11/27 11:26:51;;;;;;;12.60;7.15;;;;;;;5.91;100.00;101897.81;4807354;29;20048;-75
2022/11/27 11:29:34;;;;;;;12.15;7.35;;;;;;;5.93;100.00;101893.44;4823620;29;20050;-75
2022/11/27 11:32:08;;;;;;;12.13;7.25;;;;;;;5.96;100.00;101900.50;4820054;29;20046;-74
2022/11/27 11:34:35;;;;;;;12.38;7.40;;;;;;;5.97;100.00;101895.28;4806719;29;20038;-74